sensor_id;sensor_type;location;lat;lon;timestamp;pressure;altitude;pressure_sealevel;temperature;humidity
76050;BME280;64967;50.234;19.224;2024-01-10T00:00:39;80004.56;;;-143.90;97.80
76050;BME280;64967;50.234;19.224;2024-01-10T00:03:06;79996.28;;;-143.90;99.08
76050;BME280;64967;50.234;19.224;2024-01-10T00:05:32;79990.09;;;-143.90;100.00
76050;BME280;64967;50.234;19.224;2024-01-10T00:07:59;79979.75;;;-143.90;100.00
76050;BME280;64967;50.234;19.224;2024-01-10T00:10:26;79977.66;;;-143.90;100.00
76050;BME280;64967;50.234;19.224;2024-01-10T00:12:53;79971.47;;;-143.90;100.00
76050;BME280;64967;50.234;19.224;2024-01-10T00:15:19;79969.38;;;-143.90;100.00
76050;BME280;64967;50.234;19.224;2024-01-10T00:17:46;79969.38;;;-143.90;100.00
76050;BME280;64967;50.234;19.224;2024-01-10T00:20:13;79959.03;;;-143.90;100.00
76050;BME280;64967;50.234;19.224;2024-01-10T00:22:40;79952.81;;;-143.90;100.00
76050;BME280;64967;50.234;19.224;2024-01-10T00:25:07;79950.75;;;-143.90;100.00
76050;BME280;64967;50.234;19.224;2024-01-10T00:27:33;79948.69;;;-143.90;100.00
76050;BME280;64967;50.234;19.224;2024-01-10T00:30:00;79961.09;;;-143.90;99.46
76050;BME280;64967;50.234;19.224;2024-01-10T00:32:27;79971.47;;;-143.90;98.63
76050;BME280;64967;50.234;19.224;2024-01-10T00:34:54;80000.44;;;-143.90;99.10
76050;BME280;64967;50.234;19.224;2024-01-10T00:37:20;80004.56;;;-143.90;100.00
76050;BME280;64967;50.234;19.224;2024-01-10T00:39:47;80000.44;;;-143.90;100.00
76050;BME280;64967;50.234;19.224;2024-01-10T00:42:14;79992.16;;;-143.90;100.00
76050;BME280;64967;50.234;19.224;2024-01-10T00:44:40;80000.44;;;-143.90;100.00
76050;BME280;64967;50.234;19.224;2024-01-10T00:47:07;80043.91;;;-143.90;100.00
76050;BME280;64967;50.234;19.224;2024-01-10T00:49:34;80025.28;;;-143.90;100.00
76050;BME280;64967;50.234;19.224;2024-01-10T00:52:01;80031.47;;;-143.90;100.00
76050;BME280;64967;50.234;19.224;2024-01-10T00:54:28;80064.59;;;-143.90;100.00
76050;BME280;64967;50.234;19.224;2024-01-10T00:56:54;80091.50;;;-143.90;100.00
76050;BME280;64967;50.234;19.224;2024-01-10T00:59:21;80091.50;;;-143.90;100.00
76050;BME280;64967;50.234;19.224;2024-01-10T01:01:48;80103.94;;;-143.90;100.00
76050;BME280;64967;50.234;19.224;2024-01-10T01:04:14;80108.06;;;-143.90;100.00
76050;BME280;64967;50.234;19.224;2024-01-10T01:06:41;80128.78;;;-143.90;100.00
76050;BME280;64967;50.234;19.224;2024-01-10T01:09:08;80116.34;;;-143.90;100.00
76050;BME280;64967;50.234;19.224;2024-01-10T01:11:35;80116.34;;;-143.90;100.00
76050;BME280;64967;50.234;19.224;2024-01-10T01:14:01;80124.63;;;-143.90;100.00
76050;BME280;64967;50.234;19.224;2024-01-10T01:16:28;80124.63;;;-143.90;100.00
76050;BME280;64967;50.234;19.224;2024-01-10T01:18:55;80141.19;;;-143.90;100.00
76050;BME280;64967;50.234;19.224;2024-01-10T01:21:21;80134.97;;;-143.90;100.00
76050;BME280;64967;50.234;19.224;2024-01-10T01:23:48;80128.78;;;-143.90;100.00
76050;BME280;64967;50.234;19.224;2024-01-10T01:26:15;80137.06;;;-143.90;100.00
76050;BME280;64967;50.234;19.224;2024-01-10T01:28:42;80137.06;;;-143.90;100.00
76050;BME280;64967;50.234;19.224;2024-01-10T01:31:09;80147.41;;;-143.90;100.00
76050;BME280;64967;50.234;19.224;2024-01-10T01:33:35;80141.19;;;-143.90;100.00
76050;BME280;64967;50.234;19.224;2024-01-10T01:36:02;80134.97;;;-143.90;100.00
76050;BME280;64967;50.234;19.224;2024-01-10T01:38:30;80116.34;;;-143.90;100.00
76050;BME280;64967;50.234;19.224;2024-01-10T01:40:56;80103.94;;;-143.90;100.00
76050;BME280;64967;50.234;19.224;2024-01-10T01:43:24;80114.28;;;-143.90;99.90
76050;BME280;64967;50.234;19.224;2024-01-10T01:45:53;80132.91;;;-143.90;97.93
76050;BME280;64967;50.234;19.224;2024-01-10T01:48:21;80137.06;;;-143.90;98.80
76050;BME280;64967;50.234;19.224;2024-01-10T01:50:52;80153.59;;;-143.90;98.86
76050;BME280;64967;50.234;19.224;2024-01-10T01:53:21;80182.59;;;-143.90;99.86
76050;BME280;64967;50.234;19.224;2024-01-10T01:55:48;80186.72;;;-143.90;100.00
76050;BME280;64967;50.234;19.224;2024-01-10T01:58:15;80197.09;;;-143.90;100.00
76050;BME280;64967;50.234;19.224;2024-01-10T02:00:42;80192.94;;;-143.90;100.00
76050;BME280;64967;50.234;19.224;2024-01-10T02:03:10;80199.16;;;-143.90;100.00
76050;BME280;64967;50.234;19.224;2024-01-10T02:05:37;80219.84;;;-143.90;100.00
76050;BME280;64967;50.234;19.224;2024-01-10T02:08:04;80226.06;;;-143.90;100.00
76050;BME280;64967;50.234;19.224;2024-01-10T02:10:31;80255.03;;;-143.90;100.00
76050;BME280;64967;50.234;19.224;2024-01-10T02:12:58;80248.81;;;-143.90;100.00
76050;BME280;64967;50.234;19.224;2024-01-10T02:15:25;80252.97;;;-143.90;100.00
76050;BME280;64967;50.234;19.224;2024-01-10T02:17:52;80265.38;;;-143.90;100.00
76050;BME280;64967;50.234;19.224;2024-01-10T02:20:19;80269.53;;;-143.90;100.00
76050;BME280;64967;50.234;19.224;2024-01-10T02:22:47;80248.81;;;-143.90;100.00
76050;BME280;64967;50.234;19.224;2024-01-10T02:25:17;80238.47;;;-143.90;100.00
76050;BME280;64967;50.234;19.224;2024-01-10T02:27:43;80244.69;;;-143.90;100.00
76050;BME280;64967;50.234;19.224;2024-01-10T02:30:10;80248.81;;;-143.90;100.00
76050;BME280;64967;50.234;19.224;2024-01-10T02:32:38;80230.19;;;-143.90;100.00
76050;BME280;64967;50.234;19.224;2024-01-10T02:35:05;80219.84;;;-143.90;100.00
76050;BME280;64967;50.234;19.224;2024-01-10T02:37:32;80215.72;;;-143.90;100.00
76050;BME280;64967;50.234;19.224;2024-01-10T02:39:59;80207.44;;;-143.90;100.00
76050;BME280;64967;50.234;19.224;2024-01-10T02:42:28;80211.56;;;-143.90;100.00
76050;BME280;64967;50.234;19.224;2024-01-10T02:44:56;80195.00;;;-143.90;100.00
76050;BME280;64967;50.234;19.224;2024-01-10T02:47:23;80201.22;;;-143.90;100.00
76050;BME280;64967;50.234;19.224;2024-01-10T02:49:50;80203.28;;;-143.90;100.00
76050;BME280;64967;50.234;19.224;2024-01-10T02:52:16;80199.16;;;-143.90;100.00
76050;BME280;64967;50.234;19.224;2024-01-10T02:54:46;80195.00;;;-143.90;100.00
76050;BME280;64967;50.234;19.224;2024-01-10T02:57:13;80188.81;;;-143.90;100.00
76050;BME280;64967;50.234;19.224;2024-01-10T02:59:40;80174.31;;;-143.90;100.00
76050;BME280;64967;50.234;19.224;2024-01-10T03:02:06;80184.66;;;-143.90;99.43
76050;BME280;64967;50.234;19.224;2024-01-10T03:04:33;80207.44;;;-143.90;99.29
76050;BME280;64967;50.234;19.224;2024-01-10T03:07:00;80197.09;;;-143.90;100.00
76050;BME280;64967;50.234;19.224;2024-01-10T03:09:27;80201.22;;;-143.90;100.00
76050;BME280;64967;50.234;19.224;2024-01-10T03:11:53;80192.94;;;-143.90;100.00
76050;BME280;64967;50.234;19.224;2024-01-10T03:14:20;80174.31;;;-143.90;100.00
76050;BME280;64967;50.234;19.224;2024-01-10T03:16:48;80163.97;;;-143.90;100.00
76050;BME280;64967;50.234;19.224;2024-01-10T03:19:15;80166.03;;;-143.90;100.00
76050;BME280;64967;50.234;19.224;2024-01-10T03:21:42;80184.66;;;-143.90;98.34
76050;BME280;64967;50.234;19.224;2024-01-10T03:24:09;80188.81;;;-143.90;98.46
76050;BME280;64967;50.234;19.224;2024-01-10T03:26:36;80190.88;;;-143.90;98.53
76050;BME280;64967;50.234;19.224;2024-01-10T03:29:02;80178.44;;;-143.90;99.17
76050;BME280;64967;50.234;19.224;2024-01-10T03:31:30;80172.25;;;-143.90;99.48
76050;BME280;64967;50.234;19.224;2024-01-10T03:33:57;80161.88;;;-143.90;99.58
76050;BME280;64967;50.234;19.224;2024-01-10T03:36:27;80166.03;;;-143.90;98.90
76050;BME280;64967;50.234;19.224;2024-01-10T03:38:54;80170.16;;;-143.90;98.53
76050;BME280;64967;50.234;19.224;2024-01-10T03:41:21;80166.03;;;-143.90;99.21
76050;BME280;64967;50.234;19.224;2024-01-10T03:43:47;80174.31;;;-143.90;100.00
76050;BME280;64967;50.234;19.224;2024-01-10T03:46:15;80157.75;;;-143.90;100.00
76050;BME280;64967;50.234;19.224;2024-01-10T03:48:42;80147.41;;;-143.90;100.00
76050;BME280;64967;50.234;19.224;2024-01-10T03:51:16;80153.59;;;-143.90;100.00
76050;BME280;64967;50.234;19.224;2024-01-10T03:53:44;80190.88;;;-143.90;99.65
76050;BME280;64967;50.234;19.224;2024-01-10T03:56:14;80184.66;;;-143.90;100.00
76050;BME280;64967;50.234;19.224;2024-01-10T03:58:40;80213.63;;;-143.90;99.67
76050;BME280;64967;50.234;19.224;2024-01-10T04:01:08;80207.44;;;-143.90;100.00
76050;BME280;64967;50.234;19.224;2024-01-10T04:03:35;80203.28;;;-143.90;100.00
76050;BME280;64967;50.234;19.224;2024-01-10T04:06:02;80199.16;;;-143.90;99.97
76050;BME280;64967;50.234;19.224;2024-01-10T04:08:29;80199.16;;;-143.90;99.20
76050;BME280;64967;50.234;19.224;2024-01-10T04:10:56;80199.16;;;-143.90;100.00
76050;BME280;64967;50.234;19.224;2024-01-10T04:13:24;80203.28;;;-143.90;100.00
76050;BME280;64967;50.234;19.224;2024-01-10T04:15:51;80190.88;;;-143.90;100.00
76050;BME280;64967;50.234;19.224;2024-01-10T04:18:18;80182.59;;;-143.90;100.00
76050;BME280;64967;50.234;19.224;2024-01-10T04:20:45;80217.78;;;-143.90;99.30
76050;BME280;64967;50.234;19.224;2024-01-10T04:23:12;80221.91;;;-143.90;100.00
76050;BME280;64967;50.234;19.224;2024-01-10T04:25:39;80213.63;;;-143.90;100.00
76050;BME280;64967;50.234;19.224;2024-01-10T04:28:06;80215.72;;;-143.90;100.00
76050;BME280;64967;50.234;19.224;2024-01-10T04:30:33;80215.72;;;-143.90;100.00
76050;BME280;64967;50.234;19.224;2024-01-10T04:32:59;80232.28;;;-143.90;99.58
76050;BME280;64967;50.234;19.224;2024-01-10T04:35:26;80232.28;;;-143.90;99.71
76050;BME280;64967;50.234;19.224;2024-01-10T04:37:53;80242.63;;;-143.90;99.64
76050;BME280;64967;50.234;19.224;2024-01-10T04:40:20;80248.81;;;-143.90;100.00
76050;BME280;64967;50.234;19.224;2024-01-10T04:42:46;80261.25;;;-143.90;100.00
76050;BME280;64967;50.234;19.224;2024-01-10T04:45:13;80250.91;;;-143.90;100.00
76050;BME280;64967;50.234;19.224;2024-01-10T04:47:40;80248.81;;;-143.90;100.00
76050;BME280;64967;50.234;19.224;2024-01-10T04:50:07;80246.75;;;-143.90;100.00
76050;BME280;64967;50.234;19.224;2024-01-10T04:52:39;80232.28;;;-143.90;100.00
76050;BME280;64967;50.234;19.224;2024-01-10T04:55:06;80219.84;;;-143.90;100.00
76050;BME280;64967;50.234;19.224;2024-01-10T04:57:35;80215.72;;;-143.90;100.00
76050;BME280;64967;50.234;19.224;2024-01-10T05:00:03;80215.72;;;-143.90;100.00
76050;BME280;64967;50.234;19.224;2024-01-10T05:02:31;80219.84;;;-143.90;100.00
76050;BME280;64967;50.234;19.224;2024-01-10T05:04:58;80209.50;;;-143.90;100.00
76050;BME280;64967;50.234;19.224;2024-01-10T05:07:25;80211.56;;;-143.90;100.00
76050;BME280;64967;50.234;19.224;2024-01-10T05:09:52;80236.41;;;-143.90;100.00
76050;BME280;64967;50.234;19.224;2024-01-10T05:12:19;80236.41;;;-143.90;100.00
76050;BME280;64967;50.234;19.224;2024-01-10T05:14:46;80240.56;;;-143.90;100.00
76050;BME280;64967;50.234;19.224;2024-01-10T05:17:12;80236.41;;;-143.90;100.00
76050;BME280;64967;50.234;19.224;2024-01-10T05:19:39;80236.41;;;-143.90;100.00
76050;BME280;64967;50.234;19.224;2024-01-10T05:22:06;80236.41;;;-143.90;100.00
76050;BME280;64967;50.234;19.224;2024-01-10T05:24:33;80252.97;;;-143.90;100.00
76050;BME280;64967;50.234;19.224;2024-01-10T05:27:00;80230.19;;;-143.90;100.00
76050;BME280;64967;50.234;19.224;2024-01-10T05:29:26;80224.00;;;-143.90;100.00
76050;BME280;64967;50.234;19.224;2024-01-10T05:31:54;80230.19;;;-143.90;100.00
76050;BME280;64967;50.234;19.224;2024-01-10T05:34:21;80215.72;;;-143.90;100.00
76050;BME280;64967;50.234;19.224;2024-01-10T05:36:48;80217.78;;;-143.90;100.00
76050;BME280;64967;50.234;19.224;2024-01-10T05:39:16;80219.84;;;-143.90;100.00
76050;BME280;64967;50.234;19.224;2024-01-10T05:41:43;80211.56;;;-143.90;100.00
76050;BME280;64967;50.234;19.224;2024-01-10T05:44:12;80199.16;;;-143.90;100.00
76050;BME280;64967;50.234;19.224;2024-01-10T05:46:39;80211.56;;;-143.90;100.00
76050;BME280;64967;50.234;19.224;2024-01-10T05:49:06;80197.09;;;-143.90;100.00
76050;BME280;64967;50.234;19.224;2024-01-10T05:51:33;80192.94;;;-143.90;100.00
76050;BME280;64967;50.234;19.224;2024-01-10T05:54:00;80228.13;;;-143.90;100.00
76050;BME280;64967;50.234;19.224;2024-01-10T05:56:27;80226.06;;;-143.90;100.00
76050;BME280;64967;50.234;19.224;2024-01-10T05:58:54;80238.47;;;-143.90;100.00
76050;BME280;64967;50.234;19.224;2024-01-10T06:01:21;80232.28;;;-143.90;100.00
76050;BME280;64967;50.234;19.224;2024-01-10T06:03:48;80244.69;;;-143.90;100.00
76050;BME280;64967;50.234;19.224;2024-01-10T06:06:15;80242.63;;;-143.90;100.00
76050;BME280;64967;50.234;19.224;2024-01-10T06:08:41;80248.81;;;-143.90;100.00
76050;BME280;64967;50.234;19.224;2024-01-10T06:11:10;80263.31;;;-143.90;100.00
76050;BME280;64967;50.234;19.224;2024-01-10T06:13:37;80292.31;;;-143.90;100.00
76050;BME280;64967;50.234;19.224;2024-01-10T06:16:19;80286.09;;;-143.90;100.00
76050;BME280;64967;50.234;19.224;2024-01-10T06:18:46;80296.44;;;-143.90;100.00
76050;BME280;64967;50.234;19.224;2024-01-10T06:21:13;80298.50;;;-143.90;100.00
76050;BME280;64967;50.234;19.224;2024-01-10T06:23:40;80288.16;;;-143.90;100.00
76050;BME280;64967;50.234;19.224;2024-01-10T06:26:07;80308.84;;;-143.90;100.00
76050;BME280;64967;50.234;19.224;2024-01-10T06:28:33;80308.84;;;-143.90;100.00
76050;BME280;64967;50.234;19.224;2024-01-10T06:31:01;80298.50;;;-143.90;100.00
76050;BME280;64967;50.234;19.224;2024-01-10T06:33:29;80286.09;;;-143.90;100.00
76050;BME280;64967;50.234;19.224;2024-01-10T06:35:55;80286.09;;;-143.90;100.00
76050;BME280;64967;50.234;19.224;2024-01-10T06:38:23;80300.59;;;-143.90;100.00
76050;BME280;64967;50.234;19.224;2024-01-10T06:40:50;80273.66;;;-143.90;100.00
76050;BME280;64967;50.234;19.224;2024-01-10T06:43:17;80257.13;;;-143.90;100.00
76050;BME280;64967;50.234;19.224;2024-01-10T06:45:44;80240.56;;;-143.90;100.00
76050;BME280;64967;50.234;19.224;2024-01-10T06:48:11;80221.91;;;-143.90;100.00
76050;BME280;64967;50.234;19.224;2024-01-10T06:50:39;80215.72;;;-143.90;100.00
76050;BME280;64967;50.234;19.224;2024-01-10T06:53:06;80203.28;;;-143.90;100.00
76050;BME280;64967;50.234;19.224;2024-01-10T06:55:33;80195.00;;;-143.90;99.98
76050;BME280;64967;50.234;19.224;2024-01-10T06:57:59;80190.88;;;-143.90;97.88
76050;BME280;64967;50.234;19.224;2024-01-10T07:00:26;80207.44;;;-143.90;97.43
76050;BME280;64967;50.234;19.224;2024-01-10T07:02:53;80195.00;;;-143.90;97.83
76050;BME280;64967;50.234;19.224;2024-01-10T07:05:20;80170.16;;;-143.90;98.00
76050;BME280;64967;50.234;19.224;2024-01-10T07:07:46;80153.59;;;-143.90;97.36
76050;BME280;64967;50.234;19.224;2024-01-10T07:10:13;80139.13;;;-143.90;96.96
76050;BME280;64967;50.234;19.224;2024-01-10T07:12:40;80145.34;;;-143.90;97.21
76050;BME280;64967;50.234;19.224;2024-01-10T07:15:08;80157.75;;;-143.90;97.97
76050;BME280;64967;50.234;19.224;2024-01-10T07:17:35;80151.53;;;-143.90;100.00
76050;BME280;64967;50.234;19.224;2024-01-10T07:20:01;80137.06;;;-143.90;100.00
76050;BME280;64967;50.234;19.224;2024-01-10T07:22:30;80097.72;;;-143.90;100.00
76050;BME280;64967;50.234;19.224;2024-01-10T07:24:57;80072.88;;;-143.90;100.00
76050;BME280;64967;50.234;19.224;2024-01-10T07:27:24;80062.53;;;-143.90;100.00
76050;BME280;64967;50.234;19.224;2024-01-10T07:29:50;80056.31;;;-143.90;100.00
76050;BME280;64967;50.234;19.224;2024-01-10T07:32:17;80035.63;;;-143.90;98.93
76050;BME280;64967;50.234;19.224;2024-01-10T07:34:46;80045.97;;;-143.90;98.84
76050;BME280;64967;50.234;19.224;2024-01-10T07:37:13;80025.28;;;-143.90;99.20
76050;BME280;64967;50.234;19.224;2024-01-10T07:39:43;80000.44;;;-143.90;100.00
76050;BME280;64967;50.234;19.224;2024-01-10T07:42:09;79975.59;;;-143.90;99.30
76050;BME280;64967;50.234;19.224;2024-01-10T07:44:36;79954.91;;;-143.90;98.36
76050;BME280;64967;50.234;19.224;2024-01-10T07:47:04;79956.97;;;-143.90;97.93
76050;BME280;64967;50.234;19.224;2024-01-10T07:49:30;79954.91;;;-143.90;98.35
76050;BME280;64967;50.234;19.224;2024-01-10T07:51:58;79923.84;;;-143.90;99.53
76050;BME280;64967;50.234;19.224;2024-01-10T07:54:25;79890.72;;;-143.90;99.95
76050;BME280;64967;50.234;19.224;2024-01-10T07:56:52;79872.09;;;-143.90;99.14
76050;BME280;64967;50.234;19.224;2024-01-10T07:59:20;79847.25;;;-143.90;99.53
76050;BME280;64967;50.234;19.224;2024-01-10T08:01:55;79832.78;;;-143.90;98.44
76050;BME280;64967;50.234;19.224;2024-01-10T08:04:23;79818.28;;;-143.90;98.46
76050;BME280;64967;50.234;19.224;2024-01-10T08:06:50;79805.88;;;-143.90;98.16
76050;BME280;64967;50.234;19.224;2024-01-10T08:09:16;79778.97;;;-143.90;98.92
76050;BME280;64967;50.234;19.224;2024-01-10T08:11:45;79770.69;;;-143.90;98.05
76050;BME280;64967;50.234;19.224;2024-01-10T08:14:12;79760.34;;;-143.90;97.55
76050;BME280;64967;50.234;19.224;2024-01-10T08:16:39;79754.13;;;-143.90;96.87
76050;BME280;64967;50.234;19.224;2024-01-10T08:19:06;79729.28;;;-143.90;97.41
76050;BME280;64967;50.234;19.224;2024-01-10T08:21:33;79725.16;;;-143.90;95.73
76050;BME280;64967;50.234;19.224;2024-01-10T08:24:02;79706.53;;;-143.90;95.29
76050;BME280;64967;50.234;19.224;2024-01-10T08:26:29;79685.81;;;-143.90;93.95
76050;BME280;64967;50.234;19.224;2024-01-10T08:28:55;79669.25;;;-143.90;94.25
76050;BME280;64967;50.234;19.224;2024-01-10T08:31:23;79656.84;;;-143.90;94.82
76050;BME280;64967;50.234;19.224;2024-01-10T08:33:50;79648.56;;;-143.90;94.23
76050;BME280;64967;50.234;19.224;2024-01-10T08:36:16;79636.16;;;-143.90;95.45
76050;BME280;64967;50.234;19.224;2024-01-10T08:38:43;79632.00;;;-143.90;96.71
76050;BME280;64967;50.234;19.224;2024-01-10T08:41:10;79629.94;;;-143.90;98.70
76050;BME280;64967;50.234;19.224;2024-01-10T08:43:38;79600.97;;;-143.90;100.00
76050;BME280;64967;50.234;19.224;2024-01-10T08:46:05;79574.06;;;-143.90;100.00
76050;BME280;64967;50.234;19.224;2024-01-10T08:48:32;79540.94;;;-143.90;100.00
76050;BME280;64967;50.234;19.224;2024-01-10T08:50:59;79520.25;;;-143.90;100.00
76050;BME280;64967;50.234;19.224;2024-01-10T08:53:27;79495.41;;;-143.90;100.00
76050;BME280;64967;50.234;19.224;2024-01-10T08:55:54;79449.88;;;-143.90;100.00
76050;BME280;64967;50.234;19.224;2024-01-10T08:58:21;79437.47;;;-143.90;99.39
76050;BME280;64967;50.234;19.224;2024-01-10T09:00:47;79412.63;;;-143.90;99.32
76050;BME280;64967;50.234;19.224;2024-01-10T09:03:14;79398.16;;;-143.90;98.27
76050;BME280;64967;50.234;19.224;2024-01-10T09:05:41;79385.72;;;-143.90;98.28
76050;BME280;64967;50.234;19.224;2024-01-10T09:08:18;79350.53;;;-143.90;100.00
76050;BME280;64967;50.234;19.224;2024-01-10T09:10:45;79325.72;;;-143.90;98.70
76050;BME280;64967;50.234;19.224;2024-01-10T09:13:12;79305.00;;;-143.90;98.95
76050;BME280;64967;50.234;19.224;2024-01-10T09:15:38;79276.03;;;-143.90;95.68
76050;BME280;64967;50.234;19.224;2024-01-10T09:18:05;79265.69;;;-143.90;93.96
76050;BME280;64967;50.234;19.224;2024-01-10T09:20:32;79255.34;;;-143.90;92.24
76050;BME280;64967;50.234;19.224;2024-01-10T09:22:58;79242.94;;;-143.90;92.24
76050;BME280;64967;50.234;19.224;2024-01-10T09:25:26;79240.84;;;-143.90;91.45
76050;BME280;64967;50.234;19.224;2024-01-10T09:27:53;79230.50;;;-143.90;92.47
76050;BME280;64967;50.234;19.224;2024-01-10T09:30:20;79230.50;;;-143.90;91.61
76050;BME280;64967;50.234;19.224;2024-01-10T09:32:47;79211.88;;;-143.90;92.14
76050;BME280;64967;50.234;19.224;2024-01-10T09:35:14;79199.47;;;-143.90;91.57
76050;BME280;64967;50.234;19.224;2024-01-10T09:37:42;79197.41;;;-143.90;91.29
76050;BME280;64967;50.234;19.224;2024-01-10T09:40:09;79166.34;;;-143.90;90.34
76050;BME280;64967;50.234;19.224;2024-01-10T09:42:36;79147.72;;;-143.90;90.13
76050;BME280;64967;50.234;19.224;2024-01-10T09:45:04;79106.34;;;-143.90;88.72
76050;BME280;64967;50.234;19.224;2024-01-10T09:47:32;79108.41;;;-143.90;86.38
76050;BME280;64967;50.234;19.224;2024-01-10T09:49:59;79116.69;;;-143.90;86.98
76050;BME280;64967;50.234;19.224;2024-01-10T09:52:33;79058.75;;;-143.90;88.20
76050;BME280;64967;50.234;19.224;2024-01-10T09:55:00;79064.94;;;-143.90;87.15
76050;BME280;64967;50.234;19.224;2024-01-10T09:57:27;79015.28;;;-143.90;87.42
76050;BME280;64967;50.234;19.224;2024-01-10T09:59:54;79031.84;;;-143.90;85.95
76050;BME280;64967;50.234;19.224;2024-01-10T10:02:23;79038.06;;;-143.90;86.36
76050;BME280;64967;50.234;19.224;2024-01-10T10:05:14;78982.19;;;-143.90;85.91
76050;BME280;64967;50.234;19.224;2024-01-10T10:10:13;78926.31;;;-143.90;84.04
76050;BME280;64967;50.234;19.224;2024-01-10T10:12:45;78897.34;;;-143.90;79.96
76050;BME280;64967;50.234;19.224;2024-01-10T10:15:14;78889.06;;;-143.90;79.51
76050;BME280;64967;50.234;19.224;2024-01-10T10:17:43;78895.25;;;-143.90;80.03
76050;BME280;64967;50.234;19.224;2024-01-10T10:20:25;78860.09;;;-143.90;81.49
76050;BME280;64967;50.234;19.224;2024-01-10T10:23:04;78876.66;;;-143.90;78.06
76050;BME280;64967;50.234;19.224;2024-01-10T10:25:33;78932.50;;;-143.90;80.94
76050;BME280;64967;50.234;19.224;2024-01-10T10:28:02;78884.91;;;-143.90;82.10
76050;BME280;64967;50.234;19.224;2024-01-10T10:30:33;78868.38;;;-143.90;78.61
76050;BME280;64967;50.234;19.224;2024-01-10T10:33:05;78851.81;;;-143.90;78.01
76050;BME280;64967;50.234;19.224;2024-01-10T10:35:34;78814.56;;;-143.90;80.20
76050;BME280;64967;50.234;19.224;2024-01-10T10:38:08;78756.63;;;-143.90;80.56
76050;BME280;64967;50.234;19.224;2024-01-10T10:40:37;78729.72;;;-143.90;76.12
76050;BME280;64967;50.234;19.224;2024-01-10T10:43:13;78752.50;;;-143.90;75.87
76050;BME280;64967;50.234;19.224;2024-01-10T10:45:46;78746.28;;;-143.90;77.26
76050;BME280;64967;50.234;19.224;2024-01-10T10:48:17;78711.09;;;-143.90;75.60
76050;BME280;64967;50.234;19.224;2024-01-10T10:50:50;78709.03;;;-143.90;73.67
76050;BME280;64967;50.234;19.224;2024-01-10T10:53:22;78684.19;;;-143.90;76.23
76050;BME280;64967;50.234;19.224;2024-01-10T10:55:53;78638.69;;;-143.90;75.68
76050;BME280;64967;50.234;19.224;2024-01-10T10:58:21;78607.63;;;-143.90;74.75
76050;BME280;64967;50.234;19.224;2024-01-10T11:00:51;78591.09;;;-143.90;73.34
76050;BME280;64967;50.234;19.224;2024-01-10T11:03:19;78551.78;;;-143.90;73.20
76050;BME280;64967;50.234;19.224;2024-01-10T11:05:47;78516.59;;;-143.90;71.93
76050;BME280;64967;50.234;19.224;2024-01-10T11:08:16;78549.72;;;-143.90;70.80
76050;BME280;64967;50.234;19.224;2024-01-10T11:10:46;78566.25;;;-143.90;73.27
76050;BME280;64967;50.234;19.224;2024-01-10T11:13:27;78555.91;;;-143.90;70.97
76050;BME280;64967;50.234;19.224;2024-01-10T11:16:12;78545.56;;;-143.90;71.30
76050;BME280;64967;50.234;19.224;2024-01-10T11:21:55;78510.38;;;-143.90;69.68
76050;BME280;64967;50.234;19.224;2024-01-10T11:24:25;78487.63;;;-143.90;70.15
76050;BME280;64967;50.234;19.224;2024-01-10T11:27:15;78448.31;;;-143.90;69.87
76050;BME280;64967;50.234;19.224;2024-01-10T11:29:43;78460.72;;;-143.90;68.37
76050;BME280;64967;50.234;19.224;2024-01-10T11:32:15;78464.88;;;-143.90;69.99
76050;BME280;64967;50.234;19.224;2024-01-10T11:34:58;78477.28;;;-143.90;70.83
76050;BME280;64967;50.234;19.224;2024-01-10T11:37:38;78442.09;;;-143.90;69.46
76050;BME280;64967;50.234;19.224;2024-01-10T11:40:08;78406.94;;;-143.90;69.53
76050;BME280;64967;50.234;19.224;2024-01-10T11:42:42;78386.25;;;-143.90;67.39
76050;BME280;64967;50.234;19.224;2024-01-10T11:45:09;78377.97;;;-143.90;66.57
76050;BME280;64967;50.234;19.224;2024-01-10T11:47:39;78349.00;;;-143.90;67.01
76050;BME280;64967;50.234;19.224;2024-01-10T11:50:08;78320.03;;;-143.90;66.02
76050;BME280;64967;50.234;19.224;2024-01-10T11:52:36;78301.41;;;-143.90;65.85
76050;BME280;64967;50.234;19.224;2024-01-10T11:55:04;78278.66;;;-143.90;63.85
76050;BME280;64967;50.234;19.224;2024-01-10T11:57:33;78282.78;;;-143.90;64.26
76050;BME280;64967;50.234;19.224;2024-01-10T12:00:01;78264.19;;;-143.90;64.67
76050;BME280;64967;50.234;19.224;2024-01-10T12:02:30;78229.00;;;-143.90;64.89
76050;BME280;64967;50.234;19.224;2024-01-10T12:04:57;78220.72;;;-143.90;63.74
76050;BME280;64967;50.234;19.224;2024-01-10T12:07:24;78208.31;;;-143.90;62.96
76050;BME280;64967;50.234;19.224;2024-01-10T12:09:52;78216.59;;;-143.90;60.55
76050;BME280;64967;50.234;19.224;2024-01-10T12:12:19;78218.66;;;-143.90;60.07
76050;BME280;64967;50.234;19.224;2024-01-10T12:14:45;78233.13;;;-143.90;59.45
76050;BME280;64967;50.234;19.224;2024-01-10T12:17:13;78233.13;;;-143.90;61.28
76050;BME280;64967;50.234;19.224;2024-01-10T12:19:40;78204.19;;;-143.90;62.38
76050;BME280;64967;50.234;19.224;2024-01-10T12:22:12;78189.69;;;-143.90;60.66
76050;BME280;64967;50.234;19.224;2024-01-10T12:24:48;78175.22;;;-143.90;61.42
76050;BME280;64967;50.234;19.224;2024-01-10T12:27:17;78171.06;;;-143.90;62.52
76050;BME280;64967;50.234;19.224;2024-01-10T12:29:48;78152.44;;;-143.90;62.83
76050;BME280;64967;50.234;19.224;2024-01-10T12:32:17;78140.03;;;-143.90;62.01
76050;BME280;64967;50.234;19.224;2024-01-10T12:34:45;78131.75;;;-143.90;62.58